createdAt,value
2017-04-14T00:00:56.628Z,61.95
2017-04-14T00:02:06.650Z,62.14
2017-04-14T00:03:17.000Z,62.14
2017-04-14T00:04:27.026Z,62.24
2017-04-14T00:05:37.371Z,62.17
2017-04-14T00:06:47.706Z,62.33
2017-04-14T00:07:58.034Z,62.17
2017-04-14T00:09:08.365Z,62.08
2017-04-14T00:10:18.707Z,62.14
2017-04-14T00:11:29.055Z,61.85
2017-04-14T00:12:39.395Z,61.95
2017-04-14T00:13:49.745Z,62.14
2017-04-14T00:14:59.777Z,62.04
2017-04-14T00:16:10.122Z,62.04
2017-04-14T00:17:19.843Z,62.04
2017-04-14T00:18:29.879Z,62.14
2017-04-14T00:19:39.580Z,62.04
2017-04-14T00:20:50.153Z,62.24
2017-04-14T00:22:00.491Z,62.33
2017-04-14T00:23:10.516Z,62.33
2017-04-14T00:24:20.910Z,62.33
2017-04-14T00:25:31.235Z,62.24
2017-04-14T00:26:41.596Z,62.14
2017-04-14T00:27:51.626Z,62.14
2017-04-14T00:29:01.653Z,62.24
2017-04-14T00:30:11.687Z,62.24
2017-04-14T00:31:21.712Z,62.33
2017-04-14T00:32:32.049Z,62.24
2017-04-14T00:33:42.087Z,62.33
2017-04-14T00:34:52.423Z,61.76
2017-04-14T00:36:02.813Z,61.76
2017-04-14T00:37:12.837Z,61.76
2017-04-14T00:38:22.876Z,61.76
2017-04-14T00:39:33.207Z,61.76
2017-04-14T00:40:43.545Z,61.76
2017-04-14T00:41:53.583Z,61.76
2017-04-14T00:43:03.611Z,61.66
2017-04-14T00:44:13.951Z,62.04
2017-04-14T00:45:24.297Z,61.66
2017-04-14T00:46:34.624Z,61.76
2017-04-14T00:47:44.325Z,62.04
2017-04-14T00:48:54.348Z,61.85
2017-04-14T00:50:04.699Z,61.85
2017-04-14T00:51:14.412Z,62.24
2017-04-14T00:52:24.755Z,61.66
2017-04-14T00:53:35.099Z,62.24
2017-04-14T00:54:45.118Z,61.76
2017-04-14T00:55:55.145Z,62.14
2017-04-14T00:57:05.495Z,61.95
2017-04-14T00:58:15.512Z,61.95
2017-04-14T00:59:25.547Z,61.76
2017-04-14T01:00:35.875Z,61.95
2017-04-14T01:01:45.909Z,62.33
2017-04-14T01:02:56.241Z,62.33
2017-04-14T01:04:06.263Z,62.33
2017-04-14T01:05:16.289Z,62.14
2017-04-14T01:06:26.615Z,62.04
2017-04-14T01:07:36.652Z,62.04
2017-04-14T01:08:46.705Z,62.04
2017-04-14T01:09:57.091Z,62.33
2017-04-14T01:11:06.791Z,61.85
2017-04-14T01:12:17.118Z,62.14
2017-04-14T01:13:27.152Z,62.3
2017-04-14T01:14:37.490Z,62.3
2017-04-14T01:15:47.823Z,62.3
2017-04-14T01:16:57.534Z,62.21
2017-04-14T01:18:07.545Z,62.21
2017-04-14T01:19:17.905Z,61.72
2017-04-14T01:20:28.241Z,62.21
2017-04-14T01:21:38.562Z,61.72
2017-04-14T01:22:48.910Z,61.44
2017-04-14T01:23:59.241Z,61.72
2017-04-14T01:25:09.576Z,61.92
2017-04-14T01:26:19.602Z,61.82
2017-04-14T01:27:29.931Z,61.72
2017-04-14T01:28:39.961Z,61.44
2017-04-14T01:29:50.303Z,61.28
2017-04-14T01:31:00.388Z,61.25
2017-04-14T01:32:10.727Z,61.09
2017-04-14T01:33:21.069Z,61.28
2017-04-14T01:34:31.091Z,61.28
2017-04-14T01:35:41.468Z,61.19
2017-04-14T01:36:51.838Z,61.28
2017-04-14T01:38:02.176Z,61.25
2017-04-14T01:39:12.204Z,61.25
2017-04-14T01:40:22.786Z,61.28
2017-04-14T01:41:33.111Z,61.28
2017-04-14T01:42:43.473Z,61.28
2017-04-14T01:43:53.508Z,61.09
2017-04-14T01:45:03.832Z,61.28
2017-04-14T01:46:14.165Z,61.09
2017-04-14T01:47:24.521Z,61.28
2017-04-14T01:48:34.862Z,61.28
2017-04-14T01:49:45.213Z,61.28
2017-04-14T01:50:55.234Z,61.28
2017-04-14T01:52:05.563Z,61.28
2017-04-14T01:53:15.893Z,61.28
2017-04-14T01:54:25.911Z,61.38
2017-04-14T01:55:35.946Z,61.19
2017-04-14T01:56:46.291Z,61.44
2017-04-14T01:57:56.609Z,61.38
2017-04-14T01:59:06.637Z,61.38
2017-04-14T02:00:16.679Z,61.06
2017-04-14T02:01:26.394Z,61.38
2017-04-14T02:02:36.723Z,61.47
2017-04-14T02:03:47.054Z,61.35
2017-04-14T02:04:57.394Z,61.54
2017-04-14T02:06:07.416Z,61.63
2017-04-14T02:07:17.738Z,61.72
2017-04-14T02:08:28.071Z,61.72
2017-04-14T02:09:38.416Z,61.54
2017-04-14T02:10:48.744Z,61.35
2017-04-14T02:11:59.082Z,61.44
2017-04-14T02:13:09.403Z,61.25
2017-04-14T02:14:19.434Z,61.25
2017-04-14T02:15:29.766Z,61.35
2017-04-14T02:16:40.092Z,61.25
2017-04-14T02:17:50.425Z,61.35
2017-04-14T02:19:00.769Z,61.35
2017-04-14T02:20:11.110Z,61.35
2017-04-14T02:21:21.731Z,61.25
2017-04-14T02:22:32.061Z,61.25
2017-04-14T02:23:42.397Z,61.06
2017-04-14T02:24:52.726Z,61.25
2017-04-14T02:26:03.058Z,61.25
2017-04-14T02:27:13.394Z,61.35
2017-04-14T02:28:23.775Z,61.16
2017-04-14T02:29:33.801Z,61.16
2017-04-14T02:30:44.132Z,61.25
2017-04-14T02:31:54.164Z,61.25
2017-04-14T02:33:03.882Z,61.25
2017-04-14T02:34:14.223Z,61.16
2017-04-14T02:35:24.245Z,61.16
2017-04-14T02:36:33.961Z,61.25
2017-04-14T02:37:44.287Z,61.16
2017-04-14T02:38:54.672Z,61.16
2017-04-14T02:40:04.683Z,61.16
2017-04-14T02:41:15.069Z,61.25
2017-04-14T02:42:25.404Z,61.16
2017-04-14T02:43:35.426Z,61.35
2017-04-14T02:44:45.829Z,61.16
2017-04-14T02:45:56.203Z,61.25
2017-04-14T02:47:06.535Z,61.25
2017-04-14T02:48:16.553Z,61.25
2017-04-14T02:49:26.889Z,61.16
2017-04-14T02:50:37.226Z,61.25
2017-04-14T02:51:47.570Z,61.25
2017-04-14T02:52:57.587Z,61.16
2017-04-14T02:54:07.908Z,61.16
2017-04-14T02:55:18.259Z,61.06
2017-04-14T02:56:27.968Z,61.35
2017-04-14T02:57:38.287Z,61.25
2017-04-14T02:58:48.295Z,61.25
2017-04-14T02:59:58.616Z,61.16
2017-04-14T03:01:08.984Z,61.35
2017-04-14T03:33:07.052Z,59.95
2017-04-14T03:34:17.370Z,59.57
2017-04-14T03:35:27.704Z,61
2017-04-14T03:36:37.706Z,61.38
2017-04-14T03:37:48.029Z,61.57
2017-04-14T03:38:58.055Z,62.91
2017-04-14T03:40:08.064Z,62.81
2017-04-14T03:41:18.407Z,63.1
2017-04-14T03:42:28.738Z,62.91
2017-04-14T03:43:38.441Z,63.04
2017-04-14T03:44:48.777Z,62.94
2017-04-14T03:45:58.485Z,62.94
2017-04-14T03:47:08.514Z,63.04
2017-04-14T03:48:18.842Z,62.88
2017-04-14T03:49:28.869Z,63.16
2017-04-14T03:50:39.206Z,63.16
2017-04-14T03:51:49.223Z,62.68
2017-04-14T03:52:59.554Z,62.71
2017-04-14T03:54:09.887Z,62.71
2017-04-14T03:55:20.213Z,62.24
2017-04-14T03:56:30.601Z,62.24
2017-04-14T03:57:41.166Z,62.43
2017-04-14T03:58:51.503Z,62.75
2017-04-14T04:00:01.835Z,62.27
2017-04-14T04:01:12.174Z,61.79
2017-04-14T04:02:22.511Z,61.79
2017-04-14T04:03:32.541Z,61.89
2017-04-14T04:04:42.252Z,61.98
2017-04-14T04:05:52.280Z,61.92
2017-04-14T04:07:02.632Z,62.01
2017-04-14T04:08:12.666Z,62.3
2017-04-14T04:09:22.689Z,62.11
2017-04-14T04:10:32.416Z,62.21
2017-04-14T04:11:42.750Z,61.92
2017-04-14T04:12:53.091Z,62.01
2017-04-14T04:14:03.156Z,62.21
2017-04-14T04:15:13.169Z,62.3
2017-04-14T04:16:23.190Z,62.3
2017-04-14T04:17:33.210Z,62.21
2017-04-14T04:18:43.224Z,61.72
2017-04-14T04:19:53.560Z,61.63
2017-04-14T04:21:03.612Z,62.04
2017-04-14T04:22:13.965Z,61.76
2017-04-14T04:23:23.990Z,61.57
2017-04-14T04:24:34.017Z,61.76
2017-04-14T04:25:43.729Z,61.85
2017-04-14T04:26:54.059Z,62.01
2017-04-14T04:28:04.087Z,62.04
2017-04-14T04:29:14.419Z,62.04
2017-04-14T04:30:24.434Z,61.57
2017-04-14T04:31:34.442Z,61.76
2017-04-14T04:32:44.462Z,61.85
2017-04-14T04:33:54.791Z,62.04
2017-04-14T04:35:05.138Z,61.57
2017-04-14T04:36:15.479Z,61.76
2017-04-14T04:37:25.506Z,61.57
2017-04-14T04:38:35.837Z,61.76
2017-04-14T04:39:45.850Z,61.85
2017-04-14T04:40:55.892Z,61.76
2017-04-14T04:42:06.246Z,61.95
2017-04-14T04:43:16.609Z,62.04
2017-04-14T04:44:26.314Z,61.95
2017-04-14T04:45:36.028Z,61.95
2017-04-14T04:46:46.365Z,61.95
2017-04-14T04:47:56.692Z,61.95
2017-04-14T04:49:07.039Z,61.95
2017-04-14T04:50:17.393Z,61.95
2017-04-14T04:51:27.712Z,61.66
2017-04-14T04:52:38.042Z,61.66
2017-04-14T04:53:48.071Z,61.57
2017-04-14T04:54:58.145Z,61.28
2017-04-14T04:56:08.522Z,61.28
2017-04-14T04:57:18.865Z,61.38
2017-04-14T04:58:29.189Z,61.28
2017-04-14T04:59:39.563Z,61.28
2017-04-14T05:00:49.942Z,61.28
2017-04-14T05:01:59.968Z,61.09
2017-04-14T05:03:10.319Z,61.28
2017-04-14T05:04:20.659Z,61.38
2017-04-14T05:05:30.988Z,61.28
2017-04-14T05:06:41.024Z,61.38
2017-04-14T05:07:51.364Z,61.41
2017-04-14T05:09:01.097Z,60.93
2017-04-14T05:10:10.829Z,60.93
2017-04-14T05:11:21.160Z,60.83
2017-04-14T05:12:31.492Z,60.55
2017-04-14T05:13:41.820Z,60.64
2017-04-14T05:14:52.137Z,60.45
2017-04-14T05:16:02.473Z,60.58
2017-04-14T05:17:12.820Z,60.74
2017-04-14T05:18:22.866Z,60.58
2017-04-14T05:19:32.884Z,60.58
2017-04-14T05:20:42.944Z,60.86
2017-04-14T05:21:53.281Z,60.67
2017-04-14T05:23:03.627Z,60.58
2017-04-14T05:24:13.715Z,60.48
2017-04-14T05:25:24.049Z,60.58
2017-04-14T05:26:34.383Z,60.61
2017-04-14T05:27:44.137Z,60.61
2017-04-14T05:28:54.522Z,60.7
2017-04-14T05:30:04.553Z,60.41
2017-04-14T05:31:14.571Z,60.8
2017-04-14T05:32:24.909Z,60.7
2017-04-14T05:33:34.924Z,60.61
2017-04-14T05:34:45.261Z,61.28
2017-04-14T05:35:55.599Z,60.89
2017-04-14T05:37:05.319Z,60.8
2017-04-14T05:38:15.653Z,60.99
2017-04-14T05:39:25.673Z,61.37
2017-04-14T05:40:35.999Z,61.66
2017-04-14T05:41:46.021Z,61.28
2017-04-14T05:42:56.372Z,61.47
2017-04-14T05:44:06.097Z,61.37
2017-04-14T05:45:16.129Z,61.18
2017-04-14T05:46:26.152Z,61.94
2017-04-14T05:47:36.484Z,61.66
2017-04-14T05:48:46.830Z,61.57
2017-04-14T05:49:57.237Z,61.37
2017-04-14T05:51:07.264Z,61.66
2017-04-14T05:52:17.595Z,61.66
2017-04-14T05:53:27.933Z,61.08
2017-04-14T05:54:37.961Z,60.83
2017-04-14T05:55:48.292Z,60.89
2017-04-14T05:56:58.613Z,60.93
2017-04-14T05:58:08.330Z,60.83
2017-04-14T05:59:18.661Z,61.02
2017-04-14T06:00:28.994Z,60.93
2017-04-14T06:01:39.026Z,60.73
2017-04-14T06:02:49.362Z,60.73
2017-04-14T06:03:59.733Z,60.83
2017-04-14T06:05:10.121Z,60.54
2017-04-14T06:06:20.486Z,60.83
2017-04-14T06:07:30.507Z,60.76
2017-04-14T06:08:40.846Z,60.67
2017-04-14T06:09:51.174Z,60.67
2017-04-14T06:11:01.509Z,60.19
2017-04-14T06:12:11.848Z,60.31
2017-04-14T06:13:22.187Z,60.7
2017-04-14T06:14:32.515Z,60.31
2017-04-14T06:15:42.851Z,60.31
2017-04-14T06:16:53.169Z,60.5
2017-04-14T06:18:03.185Z,60.03
2017-04-14T06:19:13.206Z,60.41
2017-04-14T06:20:23.551Z,60.5
2017-04-14T06:21:33.883Z,60.05
2017-04-14T06:22:44.226Z,60.6
2017-04-14T06:23:54.259Z,60.05
2017-04-14T06:25:04.310Z,59.96
2017-04-14T06:26:14.642Z,60.44
2017-04-14T06:27:24.654Z,59.58
2017-04-14T06:28:34.685Z,60.44
2017-04-14T06:29:45.030Z,60.72
2017-04-14T06:30:55.362Z,59.96
2017-04-14T06:32:05.705Z,60.72
2017-04-14T06:33:16.036Z,60.72
2017-04-14T06:34:26.085Z,60.35
2017-04-14T06:35:35.799Z,60.63
2017-04-14T06:36:46.123Z,60.15
2017-04-14T06:37:56.504Z,59.89
2017-04-14T06:39:06.225Z,59.92
2017-04-14T06:40:16.562Z,59.44
2017-04-14T06:41:26.908Z,59.54
2017-04-14T06:42:37.254Z,59.09
2017-04-14T06:43:47.611Z,59.19
2017-04-14T06:44:57.644Z,59.41
2017-04-14T06:46:07.974Z,59.41
2017-04-14T06:47:18.324Z,58.67
2017-04-14T06:48:28.660Z,58.57
2017-04-14T06:49:38.679Z,58.86
2017-04-14T06:50:49.042Z,58.79
2017-04-14T06:51:59.373Z,58.89
2017-04-14T06:53:09.722Z,58.89
2017-04-14T06:54:20.060Z,59.27
2017-04-14T06:55:30.404Z,59.17
2017-04-14T06:56:40.107Z,59.27
2017-04-14T06:57:50.028Z,59.17
2017-04-14T06:59:00.425Z,59.37
2017-04-14T07:00:10.770Z,59.47
2017-04-14T07:01:20.495Z,59.37
2017-04-14T07:02:30.539Z,60.04
2017-04-14T07:03:40.568Z,59.56
2017-04-14T07:04:50.588Z,59.37
2017-04-14T07:06:00.920Z,59.17
2017-04-14T07:07:10.931Z,59.17
2017-04-14T07:08:20.960Z,59.4
2017-04-14T07:09:30.976Z,58.72
2017-04-14T07:10:40.997Z,58.95
2017-04-14T07:11:51.028Z,58.47
2017-04-14T07:13:01.050Z,58.2
2017-04-14T07:14:11.132Z,58.11
2017-04-14T07:15:21.483Z,58.04
2017-04-14T07:16:31.505Z,57.94
2017-04-14T07:17:41.862Z,58.42
2017-04-14T07:18:51.898Z,59
2017-04-14T07:20:02.236Z,58.88
2017-04-14T07:21:12.266Z,59.55
2017-04-14T07:22:22.297Z,59.36
2017-04-14T07:23:32.338Z,59.55
2017-04-14T07:24:42.700Z,58.97
2017-04-14T07:25:53.037Z,58.88
2017-04-14T07:27:03.134Z,58.97
2017-04-14T07:28:12.849Z,58.52
2017-04-14T07:29:23.169Z,58.97
2017-04-14T07:30:33.202Z,59
2017-04-14T07:31:43.233Z,58.52
2017-04-14T07:32:53.794Z,58.36
2017-04-14T07:34:04.125Z,57.97
2017-04-14T07:35:14.513Z,58.26
2017-04-14T07:36:24.855Z,58.36
2017-04-14T07:37:35.181Z,58.07
2017-04-14T07:38:45.202Z,58.55
2017-04-14T07:39:55.539Z,58.84
2017-04-14T07:41:05.573Z,59.03
2017-04-14T07:42:15.907Z,59.03
2017-04-14T07:43:25.929Z,58.55
2017-04-14T07:44:35.955Z,58.65
2017-04-14T07:45:46.308Z,58.45
2017-04-14T07:46:55.712Z,58.07
2017-04-14T07:48:05.736Z,58
2017-04-14T07:49:16.074Z,58.29
2017-04-14T07:50:26.426Z,58
2017-04-14T07:51:36.785Z,58.39
2017-04-14T07:52:46.802Z,58.19
2017-04-14T07:53:56.829Z,58.39
2017-04-14T07:55:06.856Z,57.9
2017-04-14T07:56:17.211Z,58
2017-04-14T07:57:27.552Z,58
2017-04-14T07:58:37.898Z,58.19
2017-04-14T07:59:48.270Z,57.9
2017-04-14T08:00:58.600Z,57.93
2017-04-14T08:02:08.327Z,58.12
2017-04-14T08:03:18.680Z,57.93
2017-04-14T08:04:29.033Z,57.93
2017-04-14T08:05:39.375Z,57.74
2017-04-14T08:06:49.743Z,58.1
2017-04-14T08:07:59.772Z,58.39
2017-04-14T08:09:10.133Z,58.65
2017-04-14T08:10:20.474Z,58.65
2017-04-14T08:11:30.816Z,58.55
2017-04-14T08:12:40.842Z,58.55
2017-04-14T08:13:51.177Z,58.26
2017-04-14T08:15:01.526Z,57.97
2017-04-14T08:16:11.928Z,57.87
2017-04-14T08:17:21.974Z,58.17
2017-04-14T08:18:32.008Z,58.45
2017-04-14T08:19:42.353Z,58.55
2017-04-14T08:20:52.384Z,58.84
2017-04-14T08:22:02.733Z,59.39
2017-04-14T08:23:12.460Z,59.39
2017-04-14T08:24:22.810Z,60.06
2017-04-14T08:25:33.173Z,60.32
2017-04-14T08:26:43.204Z,60.71
2017-04-14T08:27:53.554Z,60.71
2017-04-14T08:29:03.899Z,60.13
2017-04-14T08:30:13.945Z,59.27
2017-04-14T08:31:24.330Z,59.36
2017-04-14T08:32:34.667Z,58.88
2017-04-14T08:33:45.009Z,59
2017-04-14T08:34:55.361Z,58.81
2017-04-14T08:36:05.712Z,58.52
2017-04-14T08:37:16.065Z,58.75
2017-04-14T08:38:26.101Z,58.17
2017-04-14T08:39:36.452Z,57.68
2017-04-14T08:40:46.799Z,58.26
2017-04-14T08:41:56.821Z,57.9
2017-04-14T08:43:07.157Z,58.58
2017-04-14T08:44:17.515Z,58.1
2017-04-14T08:45:27.781Z,59.03
2017-04-14T08:46:38.168Z,58.45
2017-04-14T08:47:48.201Z,59.39
2017-04-14T08:48:58.786Z,59.48
2017-04-14T08:50:09.135Z,59.39
2017-04-14T08:51:19.470Z,59.27
2017-04-14T08:52:29.871Z,59.36
2017-04-14T08:53:40.230Z,59.36
2017-04-14T08:54:50.581Z,59.36
2017-04-14T08:56:00.623Z,59.17
2017-04-14T08:57:10.964Z,59.27
2017-04-14T08:58:21.315Z,59.36
2017-04-14T08:59:31.642Z,59.36
2017-04-14T09:00:41.998Z,59.84
2017-04-14T09:01:51.706Z,59.65
2017-04-14T09:03:02.091Z,59.45
2017-04-14T09:04:12.117Z,59.55
2017-04-14T09:05:22.471Z,59.65
2017-04-14T09:06:32.812Z,59.65
2017-04-14T09:07:43.150Z,59.75
2017-04-14T09:08:53.171Z,59.75
2017-04-14T09:10:03.516Z,59.52
2017-04-14T09:11:13.530Z,59.52
2017-04-14T09:12:23.873Z,59.62
2017-04-14T09:13:33.901Z,59.55
2017-04-14T09:14:44.263Z,59.36
2017-04-14T09:15:54.591Z,59.27
2017-04-14T09:17:04.943Z,59.36
2017-04-14T09:18:15.308Z,59.45
2017-04-14T09:19:25.337Z,59.27
2017-04-14T09:20:35.731Z,59.55
2017-04-14T09:21:46.085Z,59.3
2017-04-14T09:22:56.427Z,59.39
2017-04-14T09:24:06.463Z,59.39
2017-04-14T09:25:16.822Z,58.42
2017-04-14T09:26:26.850Z,59
2017-04-14T09:27:37.182Z,59.52
2017-04-14T09:28:47.519Z,59.48
2017-04-14T09:29:57.866Z,59.3
2017-04-14T09:31:08.193Z,59.58
2017-04-14T09:32:18.209Z,59.3
2017-04-14T09:33:28.546Z,59.23
2017-04-14T09:34:38.563Z,59.58
2017-04-14T09:35:48.281Z,59.58
2017-04-14T09:36:58.327Z,59.48
2017-04-14T09:38:08.655Z,60.61
2017-04-14T09:39:19.035Z,60.13
2017-04-14T09:40:29.431Z,60.52
2017-04-14T09:41:39.480Z,60.03
2017-04-14T09:42:49.827Z,60.42
2017-04-14T09:44:00.193Z,60.23
2017-04-14T09:45:09.909Z,60.3
2017-04-14T09:46:20.290Z,60.61
2017-04-14T09:47:30.313Z,60.03
2017-04-14T09:48:40.665Z,60.13
2017-04-14T09:49:50.702Z,60.13
2017-04-14T09:51:01.039Z,59.45
2017-04-14T09:52:11.373Z,59.45
2017-04-14T09:53:21.721Z,59.36
2017-04-14T09:54:32.061Z,59.17
2017-04-14T09:55:42.400Z,59.36
2017-04-14T09:56:52.727Z,59.45
2017-04-14T09:58:02.757Z,59.17
2017-04-14T09:59:13.090Z,59.45
2017-04-14T10:00:22.827Z,59.55
2017-04-14T10:01:33.178Z,59.36
2017-04-14T10:02:43.760Z,59.48
2017-04-14T10:03:53.786Z,59.3
2017-04-14T10:05:03.830Z,59.2
2017-04-14T10:06:14.189Z,59.48
2017-04-14T10:07:24.537Z,58.91
2017-04-14T10:08:34.563Z,59.13
2017-04-14T10:09:44.901Z,59.03
2017-04-14T10:10:55.246Z,58.84
2017-04-14T10:12:05.581Z,58.97
2017-04-14T10:13:15.307Z,58.48
2017-04-14T10:14:25.644Z,58.58
2017-04-14T10:15:35.364Z,58.68
2017-04-14T10:16:45.716Z,58.22
2017-04-14T10:17:56.055Z,58.12
2017-04-14T10:19:06.398Z,58.25
2017-04-14T10:20:16.419Z,58.35
2017-04-14T10:21:26.778Z,58.25
2017-04-14T10:22:37.131Z,59.09
2017-04-14T10:23:46.847Z,59.58
2017-04-14T10:24:57.197Z,60.41
2017-04-14T10:26:06.916Z,60.38
2017-04-14T10:27:17.248Z,60.48
2017-04-14T10:28:27.588Z,60.35
2017-04-14T10:29:37.625Z,60.48
2017-04-14T10:30:47.992Z,60.45
2017-04-14T10:31:58.248Z,60.55
2017-04-14T10:33:08.292Z,59.52
2017-04-14T10:34:18.629Z,59.23
2017-04-14T10:35:28.972Z,58.58
2017-04-14T10:36:39.310Z,57.96
2017-04-14T10:37:49.662Z,57.51
2017-04-14T10:39:00.028Z,56.76
2017-04-14T10:40:10.366Z,56.7
2017-04-14T10:41:20.716Z,56.7
2017-04-14T10:42:30.739Z,56.88
2017-04-14T10:43:41.092Z,57.11
2017-04-14T10:44:51.427Z,56.82
2017-04-14T10:46:01.798Z,57.69
2017-04-14T10:47:11.831Z,57.4
2017-04-14T10:48:22.183Z,57.2
2017-04-14T10:49:32.545Z,57.5
2017-04-14T10:50:42.570Z,57.86
2017-04-14T10:51:52.603Z,58.14
2017-04-14T10:53:02.644Z,57.76
2017-04-14T10:54:13.000Z,58.24
2017-04-14T10:55:23.340Z,57.56
2017-04-14T10:56:33.380Z,57.86
2017-04-14T10:57:43.462Z,58.04
2017-04-14T10:58:53.804Z,58.04
2017-04-14T11:00:04.145Z,58.7
2017-04-14T11:01:14.188Z,58.89
2017-04-14T11:02:24.209Z,58.47
2017-04-14T11:03:34.560Z,59.15
2017-04-14T11:04:44.596Z,59.22
2017-04-14T11:05:54.968Z,59.89
2017-04-14T11:07:05.299Z,59.41
2017-04-14T11:08:15.647Z,59.51
2017-04-14T11:09:25.994Z,59.38
2017-04-14T11:10:35.730Z,59.48
2017-04-14T11:11:45.761Z,59.93
2017-04-14T11:12:56.109Z,60.22
2017-04-14T11:14:06.450Z,60.31
2017-04-14T11:15:16.779Z,60
2017-04-14T11:16:26.804Z,60.48
2017-04-14T11:17:36.821Z,60.28
2017-04-14T11:18:46.863Z,59.97
2017-04-14T11:19:57.214Z,60.1
2017-04-14T11:21:06.937Z,59.78
2017-04-14T11:22:17.281Z,59.42
2017-04-14T11:23:27.622Z,58.45
2017-04-14T11:24:37.966Z,57.81
2017-04-14T11:25:48.317Z,57.67
2017-04-14T11:26:58.673Z,57.41
2017-04-14T11:28:09.009Z,57.31
2017-04-14T11:29:19.355Z,57.31
2017-04-14T11:30:29.714Z,57.96
2017-04-14T11:31:40.036Z,57.87
2017-04-14T11:32:50.096Z,57.87
2017-04-14T11:34:00.133Z,57.87
2017-04-14T11:35:10.476Z,57.51
2017-04-14T11:36:20.519Z,57.41
2017-04-14T11:37:30.884Z,57.44
2017-04-14T11:38:41.251Z,57.73
2017-04-14T11:39:51.344Z,57.82
2017-04-14T11:41:01.365Z,58.12
2017-04-14T11:42:11.717Z,58.21
2017-04-14T11:43:22.049Z,58.12
2017-04-14T11:44:32.408Z,58.02
2017-04-14T11:45:42.442Z,57.95
2017-04-14T11:46:52.770Z,58.14
2017-04-14T11:48:03.122Z,57.82
2017-04-14T11:49:12.847Z,57.92
2017-04-14T11:50:23.198Z,57.73
2017-04-14T11:51:33.532Z,57.92
2017-04-14T11:52:43.864Z,57.95
2017-04-14T11:53:53.909Z,57.66
2017-04-14T11:55:03.939Z,58.21
2017-04-14T11:56:14.281Z,58.7
2017-04-14T11:57:24.299Z,58.21
2017-04-14T11:58:34.637Z,58.76
2017-04-14T11:59:44.663Z,58.57
2017-04-14T12:00:55.029Z,58.47
2017-04-14T12:02:05.386Z,58.31
2017-04-14T12:03:15.734Z,58.12
2017-04-14T12:04:26.081Z,58.21
2017-04-14T12:05:36.418Z,58.12
2017-04-14T12:06:46.796Z,58.12
2017-04-14T12:07:57.145Z,58.5
2017-04-14T12:09:07.493Z,58.4
2017-04-14T12:10:17.842Z,58.76
2017-04-14T12:11:27.884Z,58.76
2017-04-14T12:12:37.909Z,58.73
2017-04-14T12:13:48.265Z,58.73
2017-04-14T12:14:57.991Z,59.31
2017-04-14T12:16:08.368Z,59.41
2017-04-14T12:17:18.713Z,59.48
2017-04-14T12:18:29.060Z,59.38
2017-04-14T12:19:39.394Z,59.96
2017-04-14T12:20:49.424Z,59.45
2017-04-14T12:21:59.760Z,59.64
2017-04-14T12:23:09.468Z,59.74
2017-04-14T12:24:19.515Z,59.25
2017-04-14T12:25:29.566Z,59.28
2017-04-14T12:26:39.898Z,59.38
2017-04-14T12:27:49.937Z,59.48
2017-04-14T12:29:00.272Z,59.58
2017-04-14T12:30:10.318Z,59.48
2017-04-14T12:31:20.661Z,59.38
2017-04-14T12:32:30.706Z,59.28
2017-04-14T12:33:40.737Z,59.77
2017-04-14T12:34:51.090Z,59.28
2017-04-14T12:36:01.440Z,59.48
2017-04-14T12:37:11.488Z,59.58
2017-04-14T12:38:21.215Z,59.48
2017-04-14T12:39:31.261Z,59.35
2017-04-14T12:40:41.615Z,59.45
2017-04-14T12:41:51.955Z,59.45
2017-04-14T12:43:02.333Z,59.45
2017-04-14T12:44:12.674Z,58.48
2017-04-14T12:45:22.690Z,58.97
2017-04-14T12:46:33.079Z,59
2017-04-14T12:47:43.414Z,58.8
2017-04-14T12:48:53.446Z,59
2017-04-14T12:50:03.797Z,59.16
2017-04-14T12:51:14.134Z,59.77
2017-04-14T12:52:24.483Z,59.45
2017-04-14T12:53:34.809Z,59.83
2017-04-14T12:54:44.836Z,59.9
2017-04-14T12:55:54.862Z,60.28
2017-04-14T12:57:05.248Z,60.35
2017-04-14T12:58:14.977Z,60.42
2017-04-14T12:59:25.016Z,60.61
2017-04-14T13:00:35.349Z,61.19
2017-04-14T13:01:45.685Z,60.87
2017-04-14T13:02:56.022Z,61.07
2017-04-14T13:04:05.742Z,61.25
2017-04-14T13:05:16.099Z,61.13
2017-04-14T13:06:26.136Z,60.94
2017-04-14T13:07:36.485Z,60.84
2017-04-14T13:08:46.820Z,61
2017-04-14T13:09:56.848Z,61.1
2017-04-14T13:11:06.877Z,61.19
2017-04-14T13:12:16.921Z,61
2017-04-14T13:13:27.292Z,60.88
2017-04-14T13:14:37.334Z,60.97
2017-04-14T13:15:47.368Z,60.69
2017-04-14T13:16:57.427Z,60.69
2017-04-14T13:18:07.763Z,60.97
2017-04-14T13:19:18.120Z,60.97
2017-04-14T13:20:28.478Z,60.85
2017-04-14T13:21:38.807Z,61.16
2017-04-14T13:22:49.165Z,60.94
2017-04-14T13:23:59.195Z,60.94
2017-04-14T13:25:09.224Z,60.85
2017-04-14T13:26:19.580Z,60.75
2017-04-14T13:27:29.975Z,60.85
2017-04-14T13:28:40.331Z,60.75
2017-04-14T13:29:50.696Z,60.75
2017-04-14T13:31:00.413Z,60.85
2017-04-14T13:32:10.451Z,60.75
2017-04-14T13:33:20.463Z,60.75
2017-04-14T13:34:30.812Z,60.85
2017-04-14T13:35:40.844Z,60.56
2017-04-14T13:36:51.202Z,61.04
2017-04-14T13:38:01.542Z,61.14
2017-04-14T13:39:11.574Z,60.85
2017-04-14T13:40:21.967Z,61.14
2017-04-14T13:41:32.323Z,61.14
2017-04-14T13:42:42.697Z,61.14
2017-04-14T13:43:53.043Z,61.04
2017-04-14T13:45:03.415Z,61.23
2017-04-14T13:46:13.755Z,61.04
2017-04-14T13:47:24.095Z,60.46
2017-04-14T13:48:34.464Z,60.46
2017-04-14T13:49:44.498Z,60.37
2017-04-14T13:50:54.852Z,60.75
2017-04-14T13:52:04.903Z,60.43
2017-04-14T13:53:14.996Z,60.53
2017-04-14T13:54:25.071Z,60.66
2017-04-14T13:55:34.795Z,60.46
2017-04-14T13:56:45.137Z,60.85
2017-04-14T13:57:58.387Z,60.85
2017-04-14T13:59:08.739Z,60.46
2017-04-14T14:00:18.772Z,60.56
2017-04-14T14:01:28.834Z,60.17
2017-04-14T14:02:39.205Z,60.75
2017-04-14T14:03:49.566Z,60.27
2017-04-14T14:04:59.678Z,60.21
2017-04-14T14:06:09.399Z,60.3
2017-04-14T14:07:19.737Z,60.21
2017-04-14T14:08:30.098Z,60.39
2017-04-14T14:09:40.478Z,60.52
2017-04-14T14:10:50.831Z,59.94
2017-04-14T14:12:01.183Z,59.85
2017-04-14T14:13:11.534Z,60.14
2017-04-14T14:14:22.132Z,60.24
2017-04-14T14:15:32.469Z,60.14
2017-04-14T14:16:42.792Z,59.94
2017-04-14T14:17:53.123Z,59.85
2017-04-14T14:19:03.473Z,59.88
2017-04-14T14:20:13.823Z,60.07
2017-04-14T14:21:24.177Z,60.27
2017-04-14T14:22:34.533Z,59.81
2017-04-14T14:23:44.881Z,60
2017-04-14T14:24:55.231Z,60.3
2017-04-14T14:26:05.263Z,59.91
2017-04-14T14:27:15.621Z,60
2017-04-14T14:28:25.967Z,59.81
2017-04-14T14:29:35.697Z,60
2017-04-14T14:30:45.422Z,60.58
2017-04-14T14:31:55.772Z,60.49
2017-04-14T14:33:06.143Z,60.58
2017-04-14T14:34:16.158Z,60.58
2017-04-14T14:35:26.206Z,60.17
2017-04-14T14:36:36.234Z,60.75
2017-04-14T14:37:46.591Z,61.22
2017-04-14T14:38:55.998Z,60.72
2017-04-14T14:40:06.031Z,60.91
2017-04-14T14:41:16.375Z,61.29
2017-04-14T14:42:26.419Z,61.58
2017-04-14T14:43:36.437Z,61.94
2017-04-14T14:44:46.776Z,61.94
2017-04-14T14:45:57.114Z,61.65
2017-04-14T14:47:07.143Z,61.81
2017-04-14T14:48:17.186Z,61.71
2017-04-14T14:49:27.524Z,62.1
2017-04-14T14:50:37.852Z,62.1
2017-04-14T14:51:47.882Z,62.19
2017-04-14T14:52:57.955Z,62.1
2017-04-14T14:54:08.290Z,61.91
2017-04-14T14:55:18.329Z,62
2017-04-14T14:56:28.083Z,61.91
2017-04-14T14:57:37.786Z,61.78
2017-04-14T14:58:47.833Z,61.68
2017-04-14T14:59:57.574Z,61.58
2017-04-14T15:01:07.614Z,61.49
2017-04-14T15:02:17.032Z,61.58
2017-04-14T15:03:27.050Z,61.58
2017-04-14T15:04:37.415Z,61.58
2017-04-14T15:05:47.750Z,61.78
2017-04-14T15:06:58.104Z,61.68
2017-04-14T15:08:08.487Z,61.78
2017-04-14T15:09:18.523Z,61.87
2017-04-14T15:10:28.570Z,61.11
2017-04-14T15:11:38.631Z,61.11
2017-04-14T15:12:48.989Z,61.49
2017-04-14T15:13:59.339Z,61.11
2017-04-14T15:15:09.051Z,61.11
2017-04-14T15:16:19.410Z,60.82
2017-04-14T15:17:29.760Z,60.72
2017-04-14T15:18:40.103Z,60.91
2017-04-14T15:19:50.441Z,60.72
2017-04-14T15:21:00.479Z,61.01
2017-04-14T15:22:10.875Z,60.91
2017-04-14T15:23:20.910Z,60.82
2017-04-14T15:24:30.956Z,60.82
2017-04-14T15:25:41.342Z,60.34
2017-04-14T15:26:51.676Z,60.37
2017-04-14T15:28:02.033Z,60.46
2017-04-14T15:29:12.382Z,60.53
2017-04-14T15:30:22.728Z,61.04
2017-04-14T15:31:33.079Z,60.82
2017-04-14T15:32:43.432Z,61.01
2017-04-14T15:33:53.797Z,60.43
2017-04-14T15:35:03.845Z,60.82
2017-04-14T15:36:13.946Z,60.91
2017-04-14T15:37:24.281Z,61.11
2017-04-14T15:38:34.321Z,60.82